createdAt,value
2022-10-05T00:00:25.526Z,11.90
2022-10-05T00:02:55.403Z,13.37
2022-10-05T00:05:28.837Z,10.30
2022-10-05T00:07:58.604Z,10.20
2022-10-05T00:10:26.656Z,11.30
2022-10-05T00:12:54.718Z,12.20
2022-10-05T00:15:23.663Z,9.13
2022-10-05T00:17:51.716Z,9.30
2022-10-05T00:20:23.514Z,10.40
2022-10-05T00:22:57.929Z,11.67
2022-10-05T00:25:26.503Z,11.10
2022-10-05T00:27:58.280Z,9.80
2022-10-05T00:30:28.376Z,12.07
2022-10-05T00:32:59.620Z,11.30
2022-10-05T00:35:29.366Z,10.00
2022-10-05T00:37:59.028Z,13.13
2022-10-05T00:40:37.209Z,9.77
2022-10-05T00:43:16.163Z,9.97
2022-10-05T00:45:47.102Z,10.33
2022-10-05T00:48:21.891Z,9.27
2022-10-05T00:51:02.312Z,10.70
2022-10-05T00:53:39.937Z,10.07
2022-10-05T00:56:14.719Z,16.10
2022-10-05T00:58:54.006Z,7.77
2022-10-05T01:01:28.244Z,8.80
2022-10-05T01:04:04.943Z,13.13
2022-10-05T01:06:38.404Z,8.13
2022-10-05T01:09:12.430Z,5.80
2022-10-05T01:11:44.992Z,8.10
2022-10-05T01:14:19.682Z,9.60
2022-10-05T01:16:52.868Z,5.80
2022-10-05T01:19:42.816Z,9.40
2022-10-05T01:22:14.744Z,7.50
2022-10-05T01:24:51.516Z,9.50
2022-10-05T01:27:40.881Z,6.77
2022-10-05T01:30:12.403Z,8.80
2022-10-05T01:32:46.341Z,14.70
2022-10-05T01:35:22.732Z,9.63
2022-10-05T01:37:58.587Z,9.50
2022-10-05T01:40:38.019Z,9.10
2022-10-05T01:43:12.908Z,8.37
2022-10-05T01:45:50.548Z,7.47
2022-10-05T01:48:23.875Z,9.00
2022-10-05T01:50:58.932Z,8.33
2022-10-05T01:53:37.650Z,9.57
2022-10-05T01:56:12.136Z,9.40
2022-10-05T01:58:46.712Z,8.80
2022-10-05T02:01:18.504Z,18.87
2022-10-05T02:03:49.197Z,10.63
2022-10-05T02:06:20.894Z,14.40
2022-10-05T02:08:53.823Z,10.90
2022-10-05T02:11:22.038Z,12.20
2022-10-05T02:13:54.557Z,9.83
2022-10-05T02:16:27.477Z,7.77
2022-10-05T02:18:59.690Z,6.33
2022-10-05T02:21:28.067Z,8.00
2022-10-05T02:23:58.873Z,6.50
2022-10-05T02:26:27.550Z,7.00
2022-10-05T02:28:59.949Z,6.47
2022-10-05T02:31:31.312Z,7.37
2022-10-05T02:34:23.739Z,6.43
2022-10-05T02:36:58.086Z,6.00
2022-10-05T02:39:32.473Z,6.80
2022-10-05T02:42:05.923Z,5.87
2022-10-05T02:44:39.033Z,6.03
2022-10-05T02:47:11.944Z,8.10
2022-10-05T02:49:42.707Z,6.03
2022-10-05T02:52:13.622Z,5.23
2022-10-05T02:54:54.663Z,6.17
2022-10-05T02:57:28.230Z,9.63
2022-10-05T03:00:04.087Z,8.63
2022-10-05T03:02:36.271Z,10.90
2022-10-05T03:05:12.525Z,7.40
2022-10-05T03:07:47.714Z,5.60
2022-10-05T03:10:21.858Z,5.90
2022-10-05T03:12:54.979Z,10.03
2022-10-05T03:15:40.187Z,10.87
2022-10-05T03:18:12.615Z,8.50
2022-10-05T03:20:45.410Z,7.43
2022-10-05T03:23:17.311Z,9.33
2022-10-05T03:25:58.064Z,7.70
2022-10-05T03:28:28.420Z,6.90
2022-10-05T03:31:01.945Z,5.50
2022-10-05T03:33:39.717Z,7.10
2022-10-05T03:36:12.411Z,11.00
2022-10-05T03:38:47.659Z,8.37
2022-10-05T03:41:20.477Z,4.13
2022-10-05T03:44:09.605Z,7.13
2022-10-05T03:46:49.518Z,7.77
2022-10-05T03:49:23.388Z,5.70
2022-10-05T03:51:56.352Z,4.77
2022-10-05T03:54:28.491Z,4.63
2022-10-05T03:56:58.459Z,4.70
2022-10-05T03:59:32.648Z,4.60
2022-10-05T04:02:05.861Z,4.87
2022-10-05T04:04:36.473Z,4.70
2022-10-05T04:07:04.771Z,4.20
2022-10-05T04:09:36.694Z,4.90
2022-10-05T04:12:11.076Z,5.97
2022-10-05T04:14:40.965Z,7.83
2022-10-05T04:17:15.197Z,4.47
2022-10-05T04:19:46.306Z,4.70
2022-10-05T04:22:18.807Z,10.77
2022-10-05T04:24:50.882Z,5.67
2022-10-05T04:27:21.161Z,5.63
2022-10-05T04:29:53.616Z,6.60
2022-10-05T04:32:31.532Z,5.33
2022-10-05T04:35:11.105Z,5.73
2022-10-05T04:37:46.738Z,5.20
2022-10-05T04:40:28.061Z,5.70
2022-10-05T04:43:02.499Z,4.67
2022-10-05T04:45:36.783Z,5.57
2022-10-05T04:48:26.518Z,4.77
2022-10-05T04:51:03.414Z,4.30
2022-10-05T04:53:35.203Z,5.10
2022-10-05T04:56:09.335Z,8.37
2022-10-05T04:58:47.076Z,11.70
2022-10-05T05:01:26.817Z,4.10
2022-10-05T05:04:13.149Z,5.60
2022-10-05T05:06:48.256Z,5.23
2022-10-05T05:09:52.078Z,4.20
2022-10-05T05:12:25.925Z,7.50
2022-10-05T05:15:32.492Z,7.10
2022-10-05T05:18:44.067Z,5.97
2022-10-05T05:21:20.689Z,4.90
2022-10-05T05:23:52.114Z,5.60
2022-10-05T05:26:25.158Z,8.10
2022-10-05T05:28:59.625Z,8.80
2022-10-05T05:31:35.797Z,5.57
2022-10-05T05:34:08.114Z,7.30
2022-10-05T05:36:45.223Z,8.83
2022-10-05T05:39:23.218Z,7.03
2022-10-05T05:42:00.674Z,8.10
2022-10-05T05:44:32.506Z,7.50
2022-10-05T05:47:05.723Z,7.00
2022-10-05T05:49:43.163Z,7.17
2022-10-05T05:52:17.056Z,4.17
2022-10-05T05:54:49.889Z,8.47
2022-10-05T05:57:21.045Z,5.27
2022-10-05T05:59:55.019Z,4.60
2022-10-05T06:02:25.783Z,5.43
2022-10-05T06:04:56.980Z,3.63
2022-10-05T06:07:30.988Z,2.53
2022-10-05T06:10:03.065Z,3.87
2022-10-05T06:12:34.858Z,4.23
2022-10-05T06:15:06.562Z,3.30
2022-10-05T06:17:38.768Z,8.67
2022-10-05T06:20:13.232Z,8.13
2022-10-05T06:22:44.676Z,5.80
2022-10-05T06:25:23.556Z,4.23
2022-10-05T06:28:06.169Z,4.67
2022-10-05T06:30:43.323Z,7.47
2022-10-05T06:33:23.895Z,8.50
2022-10-05T06:36:06.521Z,4.50
2022-10-05T06:38:58.937Z,4.97
2022-10-05T06:41:36.089Z,5.73
2022-10-05T06:44:06.260Z,4.23
2022-10-05T06:46:44.525Z,2.90
2022-10-05T06:49:19.842Z,4.83
2022-10-05T06:51:52.679Z,6.37
2022-10-05T06:54:31.468Z,9.20
2022-10-05T06:57:04.406Z,4.40
2022-10-05T06:59:37.687Z,2.83
2022-10-05T07:02:10.735Z,2.40
2022-10-05T07:04:49.318Z,2.00
2022-10-05T07:07:22.611Z,3.73
2022-10-05T07:10:01.562Z,2.53
2022-10-05T07:12:44.113Z,3.23
2022-10-05T07:15:24.566Z,4.30
2022-10-05T07:18:02.644Z,2.57
2022-10-05T07:20:33.060Z,1.83
2022-10-05T07:23:14.644Z,3.07
2022-10-05T07:25:48.323Z,2.23
2022-10-05T07:28:21.775Z,2.73
2022-10-05T07:30:56.915Z,4.50
2022-10-05T07:33:27.460Z,2.53
2022-10-05T07:36:19.190Z,5.03
2022-10-05T07:38:48.916Z,6.50
2022-10-05T07:41:20.950Z,4.70
2022-10-05T07:44:05.023Z,6.60
2022-10-05T07:46:44.057Z,2.00
2022-10-05T07:49:18.144Z,2.00
2022-10-05T07:51:47.685Z,1.83
2022-10-05T07:54:19.663Z,2.57
2022-10-05T07:56:51.328Z,3.80
2022-10-05T07:59:26.457Z,2.03
2022-10-05T08:02:01.213Z,5.20
2022-10-05T08:04:32.797Z,1.63
2022-10-05T08:07:03.063Z,4.63
2022-10-05T08:09:37.078Z,1.33
2022-10-05T08:12:21.957Z,1.83
2022-10-05T08:14:54.401Z,2.33
2022-10-05T08:17:30.292Z,1.90
2022-10-05T08:20:07.277Z,1.83
2022-10-05T08:22:42.216Z,3.77
2022-10-05T08:25:16.489Z,1.77
2022-10-05T08:27:50.769Z,2.77
2022-10-05T08:30:19.130Z,1.60
2022-10-05T08:32:51.486Z,2.37
2022-10-05T08:35:26.961Z,4.20
2022-10-05T08:37:55.632Z,1.73
2022-10-05T08:40:52.571Z,3.70
2022-10-05T08:43:41.037Z,1.83
2022-10-05T08:46:28.783Z,3.03
2022-10-05T08:49:11.002Z,1.40
2022-10-05T08:51:56.186Z,3.50
2022-10-05T08:54:47.374Z,2.90
2022-10-05T08:57:35.294Z,1.70
2022-10-05T09:00:12.892Z,6.97
2022-10-05T09:03:05.788Z,1.90
2022-10-05T09:06:07.315Z,6.70
2022-10-05T09:09:11.133Z,2.40
2022-10-05T09:11:40.698Z,7.80
2022-10-05T09:14:29.837Z,9.50
2022-10-05T09:17:23.098Z,5.83
2022-10-05T09:19:54.750Z,2.33
2022-10-05T09:22:36.661Z,4.90
2022-10-05T09:25:23.568Z,10.70
2022-10-05T09:27:56.250Z,4.47
2022-10-05T09:30:35.283Z,6.30
2022-10-05T09:33:45.302Z,3.87
2022-10-05T09:36:44.343Z,5.53
2022-10-05T09:39:27.123Z,6.60
2022-10-05T09:42:14.642Z,3.00
2022-10-05T09:45:07.452Z,3.30
2022-10-05T09:47:59.831Z,2.90
2022-10-05T09:51:14.998Z,3.93
2022-10-05T09:54:33.901Z,4.23
2022-10-05T09:57:32.427Z,3.33
2022-10-05T10:00:08.660Z,3.60
2022-10-05T10:02:53.286Z,6.13
2022-10-05T10:06:03.233Z,2.90
2022-10-05T10:08:41.123Z,5.87
2022-10-05T10:11:27.712Z,4.00
2022-10-05T10:14:15.613Z,2.47
2022-10-05T10:17:03.658Z,4.83
2022-10-05T10:20:05.861Z,2.17
2022-10-05T10:23:01.603Z,5.60
2022-10-05T10:25:47.132Z,5.00
2022-10-05T10:28:31.815Z,4.47
2022-10-05T10:31:16.914Z,8.23
2022-10-05T10:34:01.003Z,4.20
2022-10-05T10:36:42.804Z,2.90
2022-10-05T10:39:13.849Z,4.87
2022-10-05T10:42:09.879Z,5.90
2022-10-05T10:45:19.671Z,3.63
2022-10-05T10:47:52.806Z,2.60
2022-10-05T10:50:49.830Z,2.53
2022-10-05T10:53:48.989Z,3.13
2022-10-05T10:56:40.545Z,2.63
2022-10-05T10:59:34.807Z,2.70
2022-10-05T11:02:27.426Z,7.03
2022-10-05T11:05:25.707Z,2.20
2022-10-05T11:08:12.585Z,2.37
2022-10-05T11:10:59.652Z,7.93
2022-10-05T11:13:41.929Z,2.20
2022-10-05T11:16:42.511Z,1.67
2022-10-05T11:19:59.631Z,1.80
2022-10-05T11:22:46.408Z,1.50
2022-10-05T11:25:47.603Z,1.90
2022-10-05T11:28:44.926Z,1.77
2022-10-05T11:31:39.177Z,3.33
2022-10-05T11:34:39.870Z,2.03
2022-10-05T11:37:39.425Z,2.03
2022-10-05T11:40:34.524Z,3.50
2022-10-05T11:43:24.575Z,1.33
2022-10-05T11:46:02.362Z,1.57
2022-10-05T11:49:13.033Z,3.03
2022-10-05T11:51:50.896Z,5.00
2022-10-05T11:55:12.081Z,1.70
2022-10-05T11:57:46.365Z,2.77
2022-10-05T12:00:17.737Z,1.77
2022-10-05T12:03:22.103Z,3.77
2022-10-05T12:05:58.511Z,1.73
2022-10-05T12:08:34.370Z,1.90
2022-10-05T12:11:24.128Z,2.20
2022-10-05T12:13:55.032Z,1.90
2022-10-05T12:16:26.319Z,2.27
2022-10-05T12:18:58.379Z,3.20
2022-10-05T12:21:32.704Z,2.30
2022-10-05T12:24:03.904Z,6.20
2022-10-05T12:26:37.648Z,1.97
2022-10-05T12:29:09.744Z,2.23
2022-10-05T12:31:45.402Z,2.40
2022-10-05T12:34:22.183Z,2.37
2022-10-05T12:37:09.264Z,2.53
2022-10-05T12:39:41.956Z,2.40
2022-10-05T12:42:19.516Z,1.93
2022-10-05T12:45:14.724Z,2.10
2022-10-05T12:47:56.626Z,1.67
2022-10-05T12:50:28.987Z,1.27
2022-10-05T12:53:07.157Z,2.43
2022-10-05T12:55:42.070Z,2.60
2022-10-05T12:58:24.312Z,7.00
2022-10-05T13:00:58.436Z,2.00
2022-10-05T13:03:30.424Z,2.60
2022-10-05T13:06:04.406Z,1.57
2022-10-05T13:08:38.092Z,6.33
2022-10-05T13:11:15.021Z,1.70
2022-10-05T13:13:56.947Z,2.83
2022-10-05T13:16:31.292Z,2.57
2022-10-05T13:19:16.741Z,2.83
2022-10-05T13:22:17.598Z,5.00
2022-10-05T13:24:54.666Z,1.57
2022-10-05T13:27:25.397Z,2.43
2022-10-05T13:29:58.666Z,5.80
2022-10-05T13:32:28.753Z,1.50
2022-10-05T13:35:11.393Z,2.13
2022-10-05T13:37:44.438Z,3.93
2022-10-05T13:40:21.749Z,1.93
2022-10-05T13:42:54.771Z,1.70
2022-10-05T13:45:25.331Z,3.33
2022-10-05T13:48:10.093Z,1.10
2022-10-05T13:50:45.711Z,1.90
2022-10-05T13:53:19.673Z,3.10
2022-10-05T13:55:50.585Z,1.47
2022-10-05T13:58:25.225Z,1.90
2022-10-05T14:00:56.482Z,4.27
2022-10-05T14:03:27.562Z,1.10
2022-10-05T14:05:57.555Z,3.30
2022-10-05T14:08:29.304Z,2.00
2022-10-05T14:10:58.402Z,2.97
2022-10-05T14:13:28.954Z,1.73
2022-10-05T14:16:19.524Z,2.60
2022-10-05T14:18:56.679Z,2.13
2022-10-05T14:21:26.662Z,1.90
2022-10-05T14:23:57.228Z,7.87
2022-10-05T14:26:36.384Z,1.97
2022-10-05T14:29:17.780Z,1.10
2022-10-05T14:31:52.954Z,2.20
2022-10-05T14:34:29.707Z,1.50
2022-10-05T14:36:59.684Z,1.27
2022-10-05T14:39:28.799Z,1.10
2022-10-05T14:41:57.062Z,1.77
2022-10-05T14:44:30.481Z,2.33
2022-10-05T14:47:02.805Z,1.73
2022-10-05T14:49:31.730Z,3.20
2022-10-05T14:52:00.030Z,4.03
2022-10-05T14:54:33.203Z,1.40
2022-10-05T14:57:11.435Z,1.70
2022-10-05T15:00:09.860Z,1.40
2022-10-05T15:02:48.165Z,1.87
2022-10-05T15:05:19.053Z,1.30
2022-10-05T15:07:50.275Z,6.30
2022-10-05T15:10:35.546Z,1.57
2022-10-05T15:13:11.824Z,1.50
2022-10-05T15:15:44.063Z,1.33
2022-10-05T15:18:32.264Z,2.73
2022-10-05T15:21:13.719Z,2.30
2022-10-05T15:23:47.408Z,1.97
2022-10-05T15:26:27.630Z,2.23
2022-10-05T15:28:59.766Z,1.70
2022-10-05T15:31:33.723Z,1.30
2022-10-05T15:34:05.407Z,1.60
2022-10-05T15:36:39.434Z,1.70
2022-10-05T15:39:17.099Z,2.03
2022-10-05T15:41:58.875Z,1.43
2022-10-05T15:44:42.408Z,3.37
2022-10-05T15:47:15.639Z,1.10
2022-10-05T15:49:49.001Z,1.50
2022-10-05T15:52:23.971Z,10.57
2022-10-05T15:55:22.332Z,1.60
2022-10-05T15:57:55.739Z,3.17
2022-10-05T16:00:26.392Z,2.43
2022-10-05T16:02:59.474Z,2.70
2022-10-05T16:05:58.076Z,6.37
2022-10-05T16:08:55.213Z,1.30
2022-10-05T16:11:33.460Z,1.97
2022-10-05T16:14:08.264Z,2.73
2022-10-05T16:16:42.781Z,3.80
2022-10-05T16:19:16.173Z,4.10
2022-10-05T16:21:52.964Z,9.07
2022-10-05T16:24:38.366Z,7.00
2022-10-05T16:27:12.016Z,8.43
2022-10-05T16:29:47.654Z,7.13
2022-10-05T16:32:18.763Z,5.20
2022-10-05T16:34:57.060Z,4.77
2022-10-05T16:37:33.188Z,5.33
2022-10-05T16:40:03.413Z,7.13
2022-10-05T16:42:42.914Z,8.83
2022-10-05T16:45:22.480Z,2.87
2022-10-05T16:47:56.575Z,12.23
2022-10-05T16:50:26.515Z,4.73
2022-10-05T16:52:59.884Z,5.87
2022-10-05T16:55:33.474Z,3.53
2022-10-05T16:58:03.434Z,5.07
2022-10-05T17:00:38.606Z,4.27
2022-10-05T17:03:16.869Z,4.97
2022-10-05T17:06:21.689Z,8.43
2022-10-05T17:09:20.881Z,4.60
2022-10-05T17:12:00.336Z,10.83
2022-10-05T17:14:41.815Z,8.53
2022-10-05T17:17:41.763Z,7.80
2022-10-05T17:20:30.450Z,12.10
2022-10-05T17:23:04.226Z,12.70
2022-10-05T17:25:44.212Z,7.13
2022-10-05T17:28:24.721Z,4.50
2022-10-05T17:31:09.678Z,6.13
2022-10-05T17:34:27.329Z,5.50
2022-10-05T17:36:58.283Z,2.13
2022-10-05T17:39:48.120Z,3.90
2022-10-05T17:42:48.547Z,3.23
2022-10-05T17:45:58.170Z,4.27
2022-10-05T17:48:42.339Z,4.47
2022-10-05T17:52:16.788Z,4.57
2022-10-05T17:55:28.339Z,2.57
2022-10-05T17:58:00.194Z,5.00
2022-10-05T18:00:34.589Z,2.93
2022-10-05T18:03:42.574Z,5.00
2022-10-05T18:06:34.373Z,6.40
2022-10-05T18:09:34.925Z,8.37
2022-10-05T18:12:10.229Z,5.33
2022-10-05T18:15:39.281Z,5.97
2022-10-05T18:18:50.181Z,3.80
2022-10-05T18:21:28.730Z,4.00
2022-10-05T18:24:20.347Z,7.40
2022-10-05T18:26:54.833Z,2.70
2022-10-05T18:29:54.471Z,4.40
2022-10-05T18:32:28.830Z,4.10
2022-10-05T18:35:02.121Z,4.63
2022-10-05T18:37:38.803Z,3.30
2022-10-05T18:40:21.287Z,3.47
2022-10-05T18:42:54.847Z,11.83
2022-10-05T18:45:26.914Z,73.77
2022-10-05T18:48:05.332Z,201.33
2022-10-05T18:50:39.406Z,432.90
2022-10-05T18:53:15.811Z,497.57
2022-10-05T18:55:47.233Z,659.63
2022-10-05T18:58:22.501Z,465.80
2022-10-05T19:01:02.727Z,543.10
2022-10-05T19:03:36.727Z,534.30
2022-10-05T19:06:13.425Z,505.83
2022-10-05T19:08:49.733Z,501.20
2022-10-05T19:11:23.126Z,364.83
2022-10-05T19:13:57.500Z,81.03
2022-10-05T19:16:35.977Z,124.67
2022-10-05T19:19:13.199Z,191.73
2022-10-05T19:21:48.242Z,118.73
2022-10-05T19:24:28.043Z,94.53
2022-10-05T19:27:03.972Z,54.60
2022-10-05T19:29:42.645Z,33.67
2022-10-05T19:32:18.584Z,8.23
2022-10-05T19:34:58.175Z,4.90
2022-10-05T19:37:32.873Z,5.47
2022-10-05T19:40:07.358Z,9.53
2022-10-05T19:42:54.210Z,4.60
2022-10-05T19:45:24.376Z,3.47
2022-10-05T19:48:02.952Z,3.93
2022-10-05T19:50:33.993Z,4.80
2022-10-05T19:53:04.178Z,7.00
2022-10-05T19:55:37.547Z,7.97
2022-10-05T19:58:18.859Z,8.10
2022-10-05T20:00:55.260Z,6.20
2022-10-05T20:03:27.659Z,6.33
2022-10-05T20:05:58.451Z,22.13
2022-10-05T20:08:31.839Z,10.27
2022-10-05T20:11:12.298Z,6.63
2022-10-05T20:13:41.903Z,15.40
2022-10-05T20:16:36.459Z,4.53
2022-10-05T20:19:22.838Z,4.43
2022-10-05T20:21:53.629Z,6.20
2022-10-05T20:24:28.218Z,11.23
2022-10-05T20:27:06.073Z,6.47
2022-10-05T20:29:36.427Z,5.60
2022-10-05T20:32:08.319Z,9.07
2022-10-05T20:34:37.588Z,4.23
2022-10-05T20:37:07.054Z,5.70
2022-10-05T20:39:35.264Z,4.53
2022-10-05T20:42:03.883Z,4.13
2022-10-05T20:44:32.464Z,3.83
2022-10-05T20:47:01.604Z,5.30
2022-10-05T20:49:31.198Z,8.37
2022-10-05T20:51:59.719Z,3.10
2022-10-05T20:54:29.482Z,5.10
2022-10-05T20:56:57.940Z,3.57
2022-10-05T20:59:26.630Z,4.90
2022-10-05T21:01:54.758Z,5.77
2022-10-05T21:04:24.756Z,4.43
2022-10-05T21:06:53.001Z,8.33
2022-10-05T21:09:21.670Z,8.67
2022-10-05T21:11:52.947Z,6.13
2022-10-05T21:14:21.052Z,10.90
2022-10-05T21:16:49.185Z,6.53
2022-10-05T21:19:17.569Z,5.80
2022-10-05T21:21:47.261Z,3.63
2022-10-05T21:24:16.346Z,5.70
2022-10-05T21:26:45.077Z,4.37
2022-10-05T21:29:14.635Z,3.40
2022-10-05T21:31:42.796Z,4.83
2022-10-05T21:34:10.895Z,6.63
2022-10-05T21:36:38.986Z,4.57
2022-10-05T21:39:07.275Z,4.00
2022-10-05T21:41:35.459Z,3.73
2022-10-05T21:44:04.125Z,3.07
2022-10-05T21:46:34.112Z,3.40
2022-10-05T21:49:02.094Z,3.60
2022-10-05T21:51:30.462Z,2.87
2022-10-05T21:54:02.884Z,5.20
2022-10-05T21:56:36.053Z,7.57
2022-10-05T21:59:06.362Z,3.50
2022-10-05T22:01:36.704Z,1.33
2022-10-05T22:04:05.428Z,2.77
2022-10-05T22:06:35.116Z,5.00
2022-10-05T22:09:03.739Z,8.63
2022-10-05T22:11:31.992Z,4.10
2022-10-05T22:14:02.762Z,4.63
2022-10-05T22:16:33.066Z,4.23
2022-10-05T22:19:05.726Z,4.37
2022-10-05T22:21:37.967Z,5.50
2022-10-05T22:24:07.031Z,3.50
2022-10-05T22:26:36.019Z,10.10
2022-10-05T22:29:04.850Z,4.90
2022-10-05T22:31:33.025Z,5.27
2022-10-05T22:34:04.820Z,13.93
2022-10-05T22:36:34.903Z,6.90
2022-10-05T22:39:03.130Z,5.30
2022-10-05T22:41:31.182Z,5.53
2022-10-05T22:43:59.227Z,8.97
2022-10-05T22:46:27.370Z,4.77
2022-10-05T22:48:55.466Z,5.40
2022-10-05T22:51:23.580Z,7.43
2022-10-05T22:53:53.275Z,6.03
2022-10-05T22:56:24.057Z,5.30
2022-10-05T22:58:52.606Z,3.17
2022-10-05T23:01:20.985Z,5.20
2022-10-05T23:03:49.222Z,3.00
2022-10-05T23:06:19.384Z,4.73
2022-10-05T23:08:48.137Z,4.37
2022-10-05T23:11:19.268Z,3.67
2022-10-05T23:13:47.397Z,5.27
2022-10-05T23:16:17.045Z,3.37
2022-10-05T23:18:46.822Z,11.93
2022-10-05T23:21:14.909Z,15.83
2022-10-05T23:23:47.345Z,9.20
2022-10-05T23:26:17.927Z,10.00
2022-10-05T23:28:47.577Z,5.70
2022-10-05T23:31:17.007Z,9.10
2022-10-05T23:33:45.320Z,8.00
2022-10-05T23:36:14.487Z,6.63
2022-10-05T23:38:42.773Z,6.53
2022-10-05T23:41:11.200Z,3.40
2022-10-05T23:43:40.714Z,5.20
2022-10-05T23:46:09.726Z,3.87
2022-10-05T23:48:39.341Z,8.20
2022-10-05T23:51:08.462Z,10.00
2022-10-05T23:53:36.652Z,6.20
2022-10-05T23:56:04.793Z,6.57
2022-10-05T23:58:32.908Z,14.80
